MSC Regina — 3FGF9 — position and weather

sailwx.info

Track history (hours):
 
Tides and Currents Weather Stations Pressure Air Temp Water Temp Dewpoint Dewpoint Depression Visibility Wind Speed Wind Dir Waves Ship Positions

MSC Regina

Last reported at 2015-Aug-23 00:17 UTC. Time now 2015-Aug-27 21:27 UTC.
Position N 46°29' W 072°14'.

Length 259 m; draft 10.3 m.

Type: Ship (hazmat cat A). MMSI: 357331980.

Date/timePositionNaut miles runAvg speedWind from/ knotsBaromVisibWave heightAir tempDewpointWater temp
2015-Aug-23 00:17N 46°29' W 072°14'1314.3
2015-Aug-22 23:21N 46°21' W 072°30'911.1
2015-Aug-22 22:33N 46°16' W 072°40'1414.3
2015-Aug-22 21:34N 46°08' W 072°57'  
2015-Aug-18 20:21N 46°06' W 072°59'1012.1
2015-Aug-18 19:33N 46°13' W 072°49'1111.5
2015-Aug-18 18:33N 46°18' W 072°34'9 8.8
2015-Aug-18 17:33N 46°24' W 072°25'1211.6
2015-Aug-18 16:33N 46°31' W 072°12'1312.7
2015-Aug-18 15:33N 46°38' W 071°56'1412.5
2015-Aug-18 14:27N 46°40' W 071°36'4314.1
2015-Aug-18 11:23N 47°04' W 070°44'  
2015-Aug-13 21:33N 42°15' W 028°56'9919.0
2015-Aug-13 16:20N 41°49' W 026°47'  
Track history (hours):
 
Tides and Currents Weather Stations Pressure Air Temp Water Temp Dewpoint Dewpoint Depression Visibility Wind Speed Wind Dir Waves Ship Positions

MSC Regina

Last reported at 2015-Aug-23 00:17 UTC. Time now 2015-Aug-27 21:27 UTC.
Position N 46°29' W 072°14'.

Length 259 m; draft 10.3 m.

Type: Ship (hazmat cat A). MMSI: 357331980.

Date/timePositionNaut miles runAvg speedWind from/ knotsBaromVisibWave heightAir tempDewpointWater temp
2015-Aug-23 00:17N 46°29' W 072°14'1314.3
2015-Aug-22 23:21N 46°21' W 072°30'911.1
2015-Aug-22 22:33N 46°16' W 072°40'1414.3
2015-Aug-22 21:34N 46°08' W 072°57'  
2015-Aug-18 20:21N 46°06' W 072°59'1012.1
2015-Aug-18 19:33N 46°13' W 072°49'1111.5
2015-Aug-18 18:33N 46°18' W 072°34'9 8.8
2015-Aug-18 17:33N 46°24' W 072°25'1211.6
2015-Aug-18 16:33N 46°31' W 072°12'1312.7
2015-Aug-18 15:33N 46°38' W 071°56'1412.5
2015-Aug-18 14:27N 46°40' W 071°36'4314.1
2015-Aug-18 11:23N 47°04' W 070°44'  
2015-Aug-13 21:33N 42°15' W 028°56'9919.0
2015-Aug-13 16:20N 41°49' W 026°47'  

Dump ship's entire track history